Ana Sayfa
METAR-TAF:

METAR-TAF

Havaalanları :

Paris-Charles de Gaulle Havalimanı

Paris-Charles de Gaulle, Fransa

Enlem: 49-01N, Boylam: 002-32E, yükseklik: 118 m

Güncel hava durumu gözlemi

Rapor saat 02:00 UTC de 25 dakika önce yapıldı.
Rüzgar kuzey/kuzeydoğudan 7 kt
Sıcaklık 7°C
Nem 76%
Basınç 1033 hPa
Görüş mesafesi 10 km veya daha fazla
1500 m altında bulut yok ve kümülonimbus yok

METAR: LFPG 260200Z 03007KT CAVOK 07/03 Q1033 NOSIG

Saat: 04:25 (02:25 UTC)

Tahmin

Rapor saat 23:00 UTC de 3 saat ve 25 dakika önce yapıldı.
Ayın 26'si saat 00 UTC'den ayın 27'si saat 06 UTC'ye kadar geçerli Tahmin
Rüzgar kuzeydoğudan 5 kt
Görüş mesafesi 10 km veya daha fazla
1500 m altında bulut yok ve kümülonimbus yok

TAF: LFPG 252300Z 2600/2706 05005KT CAVOK TX20/2615Z TN05/2606Z

4.000'den fazla havaalanı için hava durumu gözlemleri ve tahminleri (METAR ve TAF raporları).

Kullanılabilir istasyonlar harita üzerinde sarı ve kırmızı noktalarla gösterilir.

İstasyonun adını görmek için fareyi noktanın üzerinde gezdirin.

Sonrasında hava gözlem ve tahminlerini görmek için tıklayın.

Haritayı değiştirmek için: yaklaştırmak için siyah artı işaretli yeşil düğmeye ve uzaklaştırmak için de eksi işaretli düğmeye hızla tıklayın; bitişik haritalar için yeşil okları kullanın.


METAR-TAF: